sensor_id;sensor_type;location;lat;lon;timestamp;pressure;altitude;pressure_sealevel;temperature;humidity
59767;BME280;46248;58.364;25.582;2024-01-15T00:03:07;97725.38;;;-8.94;100.00
59767;BME280;46248;58.364;25.582;2024-01-15T00:06:30;97719.53;;;-8.98;100.00
59767;BME280;46248;58.364;25.582;2024-01-15T00:09:54;97722.84;;;-8.96;100.00
59767;BME280;46248;58.364;25.582;2024-01-15T00:13:16;97716.13;;;-8.99;100.00
59767;BME280;46248;58.364;25.582;2024-01-15T00:16:40;97716.13;;;-8.99;100.00
59767;BME280;46248;58.364;25.582;2024-01-15T00:20:02;97716.16;;;-9.00;100.00
59767;BME280;46248;58.364;25.582;2024-01-15T00:23:25;97703.56;;;-9.05;100.00
59767;BME280;46248;58.364;25.582;2024-01-15T00:26:46;97717.84;;;-8.99;100.00
59767;BME280;46248;58.364;25.582;2024-01-15T00:30:11;97695.13;;;-9.04;100.00
59767;BME280;46248;58.364;25.582;2024-01-15T00:33:33;97704.28;;;-8.96;100.00
59767;BME280;46248;58.364;25.582;2024-01-15T00:36:56;97697.50;;;-8.96;100.00
59767;BME280;46248;58.364;25.582;2024-01-15T00:40:18;97691.63;;;-8.98;100.00
59767;BME280;46248;58.364;25.582;2024-01-15T00:43:39;97700.91;;;-8.99;100.00
59767;BME280;46248;58.364;25.582;2024-01-15T00:47:02;97687.47;;;-9.01;100.00
59767;BME280;46248;58.364;25.582;2024-01-15T00:50:24;97688.25;;;-8.99;100.00
59767;BME280;46248;58.364;25.582;2024-01-15T00:53:46;97684.03;;;-8.98;100.00
59767;BME280;46248;58.364;25.582;2024-01-15T00:57:08;97683.16;;;-8.95;100.00
59767;BME280;46248;58.364;25.582;2024-01-15T01:00:30;97680.63;;;-8.97;100.00
59767;BME280;46248;58.364;25.582;2024-01-15T01:03:53;97681.50;;;-8.98;100.00
59767;BME280;46248;58.364;25.582;2024-01-15T01:07:15;97685.75;;;-9.00;100.00
59767;BME280;46248;58.364;25.582;2024-01-15T01:10:37;97685.75;;;-9.00;100.00
59767;BME280;46248;58.364;25.582;2024-01-15T01:13:59;97689.94;;;-8.97;100.00
59767;BME280;46248;58.364;25.582;2024-01-15T01:17:21;97682.34;;;-8.99;100.00
59767;BME280;46248;58.364;25.582;2024-01-15T01:20:44;97673.84;;;-8.96;100.00
59767;BME280;46248;58.364;25.582;2024-01-15T01:24:05;97686.50;;;-8.95;100.00
59767;BME280;46248;58.364;25.582;2024-01-15T01:27:27;97678.09;;;-8.99;100.00
59767;BME280;46248;58.364;25.582;2024-01-15T01:30:49;97682.22;;;-8.93;100.00
59767;BME280;46248;58.364;25.582;2024-01-15T01:34:14;97657.03;;;-9.02;100.00
59767;BME280;46248;58.364;25.582;2024-01-15T01:37:38;97667.94;;;-8.97;100.00
59767;BME280;46248;58.364;25.582;2024-01-15T01:40:59;97673.03;;;-8.99;100.00
59767;BME280;46248;58.364;25.582;2024-01-15T01:44:21;97660.41;;;-9.02;100.00
59767;BME280;46248;58.364;25.582;2024-01-15T01:47:43;97660.34;;;-8.99;100.00
59767;BME280;46248;58.364;25.582;2024-01-15T01:51:05;97663.75;;;-8.98;100.00
59767;BME280;46248;58.364;25.582;2024-01-15T01:54:29;97658.63;;;-8.96;100.00
59767;BME280;46248;58.364;25.582;2024-01-15T01:57:53;97647.69;;;-8.99;100.00
59767;BME280;46248;58.364;25.582;2024-01-15T02:01:16;97646.84;;;-8.99;100.00
59767;BME280;46248;58.364;25.582;2024-01-15T02:04:39;97644.34;;;-9.01;100.00
59767;BME280;46248;58.364;25.582;2024-01-15T02:08:01;97637.59;;;-9.00;100.00
59767;BME280;46248;58.364;25.582;2024-01-15T02:11:25;97637.53;;;-8.97;100.00
59767;BME280;46248;58.364;25.582;2024-01-15T02:14:46;97634.13;;;-8.96;100.00
59767;BME280;46248;58.364;25.582;2024-01-15T02:18:08;97634.13;;;-8.96;100.00
59767;BME280;46248;58.364;25.582;2024-01-15T02:21:31;97630.69;;;-8.93;100.00
59767;BME280;46248;58.364;25.582;2024-01-15T02:24:55;97623.97;;;-8.94;100.00
59767;BME280;46248;58.364;25.582;2024-01-15T02:28:17;97627.38;;;-8.97;100.00
59767;BME280;46248;58.364;25.582;2024-01-15T02:31:39;97626.50;;;-8.96;100.00
59767;BME280;46248;58.364;25.582;2024-01-15T02:35:00;97628.19;;;-8.95;100.00
59767;BME280;46248;58.364;25.582;2024-01-15T02:38:22;97632.44;;;-8.97;100.00
59767;BME280;46248;58.364;25.582;2024-01-15T02:41:45;97633.28;;;-8.96;100.00
59767;BME280;46248;58.364;25.582;2024-01-15T02:45:07;97632.50;;;-9.00;100.00
59767;BME280;46248;58.364;25.582;2024-01-15T02:48:29;97634.28;;;-9.04;100.00
59767;BME280;46248;58.364;25.582;2024-01-15T02:51:51;97632.56;;;-9.03;100.00
59767;BME280;46248;58.364;25.582;2024-01-15T02:55:13;97640.13;;;-9.00;100.00
59767;BME280;46248;58.364;25.582;2024-01-15T02:58:36;97599.84;;;-9.15;100.00
59767;BME280;46248;58.364;25.582;2024-01-15T03:01:57;97626.56;;;-8.99;100.00
59767;BME280;46248;58.364;25.582;2024-01-15T03:05:19;97626.50;;;-8.96;100.00
59767;BME280;46248;58.364;25.582;2024-01-15T03:08:41;97618.94;;;-8.97;100.00
59767;BME280;46248;58.364;25.582;2024-01-15T03:12:05;97622.25;;;-8.94;100.00
59767;BME280;46248;58.364;25.582;2024-01-15T03:15:30;97615.53;;;-8.96;100.00
59767;BME280;46248;58.364;25.582;2024-01-15T03:18:51;97608.69;;;-8.91;100.00
59767;BME280;46248;58.364;25.582;2024-01-15T03:22:13;97608.63;;;-8.88;100.00
59767;BME280;46248;58.364;25.582;2024-01-15T03:25:35;97603.56;;;-8.90;100.00
59767;BME280;46248;58.364;25.582;2024-01-15T03:28:57;97603.50;;;-8.85;100.00
59767;BME280;46248;58.364;25.582;2024-01-15T03:32:20;97597.66;;;-8.89;100.00
59767;BME280;46248;58.364;25.582;2024-01-15T03:35:41;97594.22;;;-8.88;100.00
59767;BME280;46248;58.364;25.582;2024-01-15T03:39:03;97598.47;;;-8.88;100.00
59767;BME280;46248;58.364;25.582;2024-01-15T03:42:25;97587.53;;;-8.90;100.00
59767;BME280;46248;58.364;25.582;2024-01-15T03:45:47;97589.16;;;-8.88;100.00
59767;BME280;46248;58.364;25.582;2024-01-15T03:49:11;97586.63;;;-8.88;100.00
59767;BME280;46248;58.364;25.582;2024-01-15T03:52:33;97578.16;;;-8.87;100.00
59767;BME280;46248;58.364;25.582;2024-01-15T03:55:56;97577.31;;;-8.87;100.00
59767;BME280;46248;58.364;25.582;2024-01-15T03:59:17;97580.59;;;-8.82;100.00
59767;BME280;46248;58.364;25.582;2024-01-15T04:02:40;97573.00;;;-8.84;100.00
59767;BME280;46248;58.364;25.582;2024-01-15T04:06:04;97567.09;;;-8.83;100.00
59767;BME280;46248;58.364;25.582;2024-01-15T04:09:26;97567.91;;;-8.82;100.00
59767;BME280;46248;58.364;25.582;2024-01-15T04:12:48;97560.31;;;-8.82;100.00
59767;BME280;46248;58.364;25.582;2024-01-15T04:16:10;97559.44;;;-8.81;100.00
59767;BME280;46248;58.364;25.582;2024-01-15T04:19:32;97565.34;;;-8.81;100.00
59767;BME280;46248;58.364;25.582;2024-01-15T04:22:55;97557.72;;;-8.81;100.00
59767;BME280;46248;58.364;25.582;2024-01-15T04:26:17;97552.72;;;-8.84;100.00
59767;BME280;46248;58.364;25.582;2024-01-15T04:29:39;97547.66;;;-8.84;100.00
59767;BME280;46248;58.364;25.582;2024-01-15T04:33:01;97557.78;;;-8.84;100.00
59767;BME280;46248;58.364;25.582;2024-01-15T04:36:23;97545.97;;;-8.83;100.00
59767;BME280;46248;58.364;25.582;2024-01-15T04:39:46;97537.56;;;-8.85;100.00
59767;BME280;46248;58.364;25.582;2024-01-15T04:43:09;97535.03;;;-8.85;100.00
59767;BME280;46248;58.364;25.582;2024-01-15T04:46:30;97543.47;;;-8.85;100.00
59767;BME280;46248;58.364;25.582;2024-01-15T04:49:52;97540.94;;;-8.85;100.00
59767;BME280;46248;58.364;25.582;2024-01-15T04:53:14;97544.28;;;-8.83;100.00
59767;BME280;46248;58.364;25.582;2024-01-15T04:56:37;97535.03;;;-8.85;100.00
59767;BME280;46248;58.364;25.582;2024-01-15T04:59:59;97533.31;;;-8.85;100.00
59767;BME280;46248;58.364;25.582;2024-01-15T05:03:21;97545.13;;;-8.84;100.00
59767;BME280;46248;58.364;25.582;2024-01-15T05:06:43;97533.44;;;-8.89;100.00
59767;BME280;46248;58.364;25.582;2024-01-15T05:10:06;97533.31;;;-8.85;100.00
59767;BME280;46248;58.364;25.582;2024-01-15T05:13:30;97530.78;;;-8.85;100.00
59767;BME280;46248;58.364;25.582;2024-01-15T05:16:51;97528.38;;;-8.91;100.00
59767;BME280;46248;58.364;25.582;2024-01-15T05:20:13;97526.59;;;-8.87;100.00
59767;BME280;46248;58.364;25.582;2024-01-15T05:23:35;97508.94;;;-8.90;100.00
59767;BME280;46248;58.364;25.582;2024-01-15T05:26:57;97518.88;;;-8.81;100.00
59767;BME280;46248;58.364;25.582;2024-01-15T05:30:20;97517.97;;;-8.79;100.00
59767;BME280;46248;58.364;25.582;2024-01-15T05:33:42;97515.44;;;-8.79;100.00
59767;BME280;46248;58.364;25.582;2024-01-15T05:37:04;97523.03;;;-8.77;100.00
59767;BME280;46248;58.364;25.582;2024-01-15T05:40:25;97511.16;;;-8.77;100.00
59767;BME280;46248;58.364;25.582;2024-01-15T05:43:47;97521.25;;;-8.73;100.00
59767;BME280;46248;58.364;25.582;2024-01-15T05:47:10;97519.53;;;-8.73;100.00
59767;BME280;46248;58.364;25.582;2024-01-15T05:50:32;97519.56;;;-8.74;100.00
59767;BME280;46248;58.364;25.582;2024-01-15T05:53:53;97513.72;;;-8.77;100.00
59767;BME280;46248;58.364;25.582;2024-01-15T05:57:15;97522.16;;;-8.76;100.00
59767;BME280;46248;58.364;25.582;2024-01-15T06:00:37;97519.56;;;-8.74;100.00
59767;BME280;46248;58.364;25.582;2024-01-15T06:04:01;97509.47;;;-8.78;100.00
59767;BME280;46248;58.364;25.582;2024-01-15T06:07:23;97506.19;;;-8.81;100.00
59767;BME280;46248;58.364;25.582;2024-01-15T06:10:45;97520.34;;;-8.71;100.00
59767;BME280;46248;58.364;25.582;2024-01-15T06:14:07;97518.66;;;-8.72;100.00
59767;BME280;46248;58.364;25.582;2024-01-15T06:17:28;97516.09;;;-8.70;100.00
59767;BME280;46248;58.364;25.582;2024-01-15T06:20:51;97522.84;;;-8.69;100.00
59767;BME280;46248;58.364;25.582;2024-01-15T06:24:13;97515.28;;;-8.72;100.00
59767;BME280;46248;58.364;25.582;2024-01-15T06:27:35;97507.66;;;-8.71;100.00
59767;BME280;46248;58.364;25.582;2024-01-15T06:30:58;97507.69;;;-8.72;100.00
59767;BME280;46248;58.364;25.582;2024-01-15T06:34:20;97506.16;;;-8.80;100.00
59767;BME280;46248;58.364;25.582;2024-01-15T06:37:43;97508.59;;;-8.75;100.00
59767;BME280;46248;58.364;25.582;2024-01-15T06:41:05;97497.81;;;-8.83;100.00
59767;BME280;46248;58.364;25.582;2024-01-15T06:44:27;97517.16;;;-8.81;100.00
59767;BME280;46248;58.364;25.582;2024-01-15T06:47:48;97518.03;;;-8.82;100.00
59767;BME280;46248;58.364;25.582;2024-01-15T06:51:10;97512.28;;;-8.90;100.00
59767;BME280;46248;58.364;25.582;2024-01-15T06:54:33;97521.47;;;-8.84;100.00
59767;BME280;46248;58.364;25.582;2024-01-15T06:57:55;97514.69;;;-8.84;100.00
59767;BME280;46248;58.364;25.582;2024-01-15T07:01:18;97514.66;;;-8.82;100.00
59767;BME280;46248;58.364;25.582;2024-01-15T07:04:39;97516.25;;;-8.78;100.00
59767;BME280;46248;58.364;25.582;2024-01-15T07:08:03;97511.94;;;-8.74;100.00
59767;BME280;46248;58.364;25.582;2024-01-15T07:11:27;97514.56;;;-8.78;100.00
59767;BME280;46248;58.364;25.582;2024-01-15T07:14:48;97514.63;;;-8.81;100.00
59767;BME280;46248;58.364;25.582;2024-01-15T07:18:10;97517.03;;;-8.74;100.00
59767;BME280;46248;58.364;25.582;2024-01-15T07:21:32;97517.88;;;-8.74;100.00
59767;BME280;46248;58.364;25.582;2024-01-15T07:24:54;97518.72;;;-8.75;100.00
59767;BME280;46248;58.364;25.582;2024-01-15T07:28:18;97517.88;;;-8.74;100.00
59767;BME280;46248;58.364;25.582;2024-01-15T07:31:40;97512.75;;;-8.72;100.00
59767;BME280;46248;58.364;25.582;2024-01-15T07:35:01;97521.09;;;-8.67;100.00
59767;BME280;46248;58.364;25.582;2024-01-15T07:38:23;97517.63;;;-8.63;100.00
59767;BME280;46248;58.364;25.582;2024-01-15T07:41:45;97514.16;;;-8.59;100.00
59767;BME280;46248;58.364;25.582;2024-01-15T07:45:09;97506.56;;;-8.59;100.00
59767;BME280;46248;58.364;25.582;2024-01-15T07:48:31;97501.50;;;-8.59;100.00
59767;BME280;46248;58.364;25.582;2024-01-15T07:51:53;97509.03;;;-8.56;100.00
59767;BME280;46248;58.364;25.582;2024-01-15T07:55:15;97506.50;;;-8.56;100.00
59767;BME280;46248;58.364;25.582;2024-01-15T07:58:37;97502.25;;;-8.57;100.00
59767;BME280;46248;58.364;25.582;2024-01-15T08:02:00;97509.03;;;-8.56;100.00
59767;BME280;46248;58.364;25.582;2024-01-15T08:05:22;97513.16;;;-8.52;100.00
59767;BME280;46248;58.364;25.582;2024-01-15T08:08:44;97502.94;;;-8.50;100.00
59767;BME280;46248;58.364;25.582;2024-01-15T08:12:06;97501.88;;;-8.40;100.00
59767;BME280;46248;58.364;25.582;2024-01-15T08:15:27;97499.94;;;-8.32;100.00
59767;BME280;46248;58.364;25.582;2024-01-15T08:18:53;97502.31;;;-8.26;100.00
59767;BME280;46248;58.364;25.582;2024-01-15T08:22:15;97498.94;;;-8.25;100.00
59767;BME280;46248;58.364;25.582;2024-01-15T08:25:37;97487.72;;;-8.16;100.00
59767;BME280;46248;58.364;25.582;2024-01-15T08:28:59;97491.91;;;-8.14;100.00
59767;BME280;46248;58.364;25.582;2024-01-15T08:32:21;97488.41;;;-8.10;100.00
59767;BME280;46248;58.364;25.582;2024-01-15T08:35:45;97488.31;;;-8.07;100.00
59767;BME280;46248;58.364;25.582;2024-01-15T08:39:07;97484.00;;;-8.03;100.00
59767;BME280;46248;58.364;25.582;2024-01-15T08:42:30;97481.28;;;-7.97;100.00
59767;BME280;46248;58.364;25.582;2024-01-15T08:45:51;97467.81;;;-7.99;100.00
59767;BME280;46248;58.364;25.582;2024-01-15T08:49:13;97470.31;;;-7.97;100.00
59767;BME280;46248;58.364;25.582;2024-01-15T08:52:36;97470.97;;;-7.91;100.00
59767;BME280;46248;58.364;25.582;2024-01-15T08:55:58;97459.94;;;-7.90;100.00
59767;BME280;46248;58.364;25.582;2024-01-15T08:59:20;97464.91;;;-7.85;100.00
59767;BME280;46248;58.364;25.582;2024-01-15T09:02:46;97449.03;;;-7.93;100.00
59767;BME280;46248;58.364;25.582;2024-01-15T09:06:07;97458.69;;;-7.75;100.00
59767;BME280;46248;58.364;25.582;2024-01-15T09:09:31;97461.13;;;-7.70;100.00
59767;BME280;46248;58.364;25.582;2024-01-15T09:12:52;97448.53;;;-7.75;100.00
59767;BME280;46248;58.364;25.582;2024-01-15T09:16:14;97451.78;;;-7.70;100.00
59767;BME280;46248;58.364;25.582;2024-01-15T09:19:36;97449.16;;;-7.65;100.00
59767;BME280;46248;58.364;25.582;2024-01-15T09:22:59;97450.63;;;-7.58;100.00
59767;BME280;46248;58.364;25.582;2024-01-15T09:26:22;97452.13;;;-7.51;100.00
59767;BME280;46248;58.364;25.582;2024-01-15T09:29:44;97435.22;;;-7.52;100.00
59767;BME280;46248;58.364;25.582;2024-01-15T09:33:06;97445.13;;;-7.43;100.00
59767;BME280;46248;58.364;25.582;2024-01-15T09:36:29;97439.84;;;-7.37;100.00
59767;BME280;46248;58.364;25.582;2024-01-15T09:39:51;97438.88;;;-7.32;100.00
59767;BME280;46248;58.364;25.582;2024-01-15T09:43:16;97437.22;;;-7.33;100.00
59767;BME280;46248;58.364;25.582;2024-01-15T09:46:39;97437.09;;;-7.29;100.00
59767;BME280;46248;58.364;25.582;2024-01-15T09:50:01;97423.59;;;-7.31;100.00
59767;BME280;46248;58.364;25.582;2024-01-15T09:53:24;97442.75;;;-7.19;100.00
59767;BME280;46248;58.364;25.582;2024-01-15T09:56:46;97436.78;;;-7.18;100.00
59767;BME280;46248;58.364;25.582;2024-01-15T10:00:10;97428.53;;;-7.26;100.00
59767;BME280;46248;58.364;25.582;2024-01-15T10:03:33;97442.88;;;-7.24;100.00
59767;BME280;46248;58.364;25.582;2024-01-15T10:06:56;97432.75;;;-7.25;100.00
59767;BME280;46248;58.364;25.582;2024-01-15T10:10:20;97426.84;;;-7.26;100.00
59767;BME280;46248;58.364;25.582;2024-01-15T10:13:43;97439.19;;;-7.13;100.00
59767;BME280;46248;58.364;25.582;2024-01-15T10:17:14;97436.47;;;-7.07;100.00
59767;BME280;46248;58.364;25.582;2024-01-15T10:20:36;97443.84;;;-7.00;100.00
59767;BME280;46248;58.364;25.582;2024-01-15T10:24:00;97435.25;;;-6.96;100.00
59767;BME280;46248;58.364;25.582;2024-01-15T10:27:22;97437.75;;;-6.94;100.00
59767;BME280;46248;58.364;25.582;2024-01-15T10:30:43;97447.72;;;-6.88;100.00
59767;BME280;46248;58.364;25.582;2024-01-15T10:34:13;97442.56;;;-6.85;100.00
59767;BME280;46248;58.364;25.582;2024-01-15T10:37:36;97441.72;;;-6.85;100.00
59767;BME280;46248;58.364;25.582;2024-01-15T10:40:57;97443.34;;;-6.83;100.00
59767;BME280;46248;58.364;25.582;2024-01-15T10:44:19;97440.00;;;-6.85;100.00
59767;BME280;46248;58.364;25.582;2024-01-15T10:47:42;97442.56;;;-6.85;100.00
59767;BME280;46248;58.364;25.582;2024-01-15T10:51:06;97422.75;;;-7.02;100.00
59767;BME280;46248;58.364;25.582;2024-01-15T10:54:31;97429.19;;;-6.92;100.00
59767;BME280;46248;58.364;25.582;2024-01-15T10:57:54;97415.41;;;-6.84;100.00
59767;BME280;46248;58.364;25.582;2024-01-15T11:01:17;97416.28;;;-6.85;100.00
59767;BME280;46248;58.364;25.582;2024-01-15T11:04:40;97417.66;;;-6.75;100.00
59767;BME280;46248;58.364;25.582;2024-01-15T11:08:05;97412.63;;;-6.77;100.00
59767;BME280;46248;58.364;25.582;2024-01-15T11:11:27;97416.09;;;-6.79;100.00
59767;BME280;46248;58.364;25.582;2024-01-15T11:14:49;97407.66;;;-6.81;100.00
59767;BME280;46248;58.364;25.582;2024-01-15T11:18:11;97401.91;;;-6.86;100.00
59767;BME280;46248;58.364;25.582;2024-01-15T11:21:41;97396.06;;;-6.90;100.00
59767;BME280;46248;58.364;25.582;2024-01-15T11:25:13;97397.66;;;-6.86;100.00
59767;BME280;46248;58.364;25.582;2024-01-15T11:28:54;97400.13;;;-6.84;100.00
59767;BME280;46248;58.364;25.582;2024-01-15T11:32:15;97397.50;;;-6.81;100.00
59767;BME280;46248;58.364;25.582;2024-01-15T11:35:49;97390.78;;;-6.84;100.00
59767;BME280;46248;58.364;25.582;2024-01-15T11:39:39;97384.94;;;-6.86;100.00
59767;BME280;46248;58.364;25.582;2024-01-15T11:43:02;97382.50;;;-6.89;100.00
59767;BME280;46248;58.364;25.582;2024-01-15T11:46:27;97365.19;;;-7.06;100.00
59767;BME280;46248;58.364;25.582;2024-01-15T11:50:00;97370.19;;;-7.03;100.00
59767;BME280;46248;58.364;25.582;2024-01-15T11:53:28;97374.25;;;-6.97;100.00
59767;BME280;46248;58.364;25.582;2024-01-15T11:56:55;97375.06;;;-6.95;100.00
59767;BME280;46248;58.364;25.582;2024-01-15T12:00:21;97368.28;;;-6.96;100.00
59767;BME280;46248;58.364;25.582;2024-01-15T12:03:44;97359.78;;;-6.95;100.00
59767;BME280;46248;58.364;25.582;2024-01-15T12:07:08;97359.63;;;-6.91;100.00
59767;BME280;46248;58.364;25.582;2024-01-15T12:10:30;97354.53;;;-6.91;100.00
59767;BME280;46248;58.364;25.582;2024-01-15T12:13:52;97355.34;;;-6.88;100.00
59767;BME280;46248;58.364;25.582;2024-01-15T12:17:16;97355.25;;;-6.85;100.00
59767;BME280;46248;58.364;25.582;2024-01-15T12:20:39;97346.81;;;-6.87;100.00
59767;BME280;46248;58.364;25.582;2024-01-15T12:24:01;97339.19;;;-6.87;100.00
59767;BME280;46248;58.364;25.582;2024-01-15T12:27:23;97340.59;;;-6.79;100.00
59767;BME280;46248;58.364;25.582;2024-01-15T12:30:46;97343.31;;;-6.83;100.00
59767;BME280;46248;58.364;25.582;2024-01-15T12:34:11;97339.91;;;-6.84;100.00
59767;BME280;46248;58.364;25.582;2024-01-15T12:37:35;97331.44;;;-6.84;100.00
59767;BME280;46248;58.364;25.582;2024-01-15T12:40:57;97338.03;;;-6.77;100.00
59767;BME280;46248;58.364;25.582;2024-01-15T12:44:19;97343.94;;;-6.77;100.00
59767;BME280;46248;58.364;25.582;2024-01-15T12:47:41;97329.63;;;-6.81;100.00
59767;BME280;46248;58.364;25.582;2024-01-15T12:51:08;97318.78;;;-6.86;100.00
59767;BME280;46248;58.364;25.582;2024-01-15T12:54:29;97332.13;;;-6.79;100.00
59767;BME280;46248;58.364;25.582;2024-01-15T12:57:51;97321.44;;;-6.89;100.00
59767;BME280;46248;58.364;25.582;2024-01-15T13:01:15;97333.84;;;-6.80;100.00
59767;BME280;46248;58.364;25.582;2024-01-15T13:04:38;97323.88;;;-6.86;100.00
59767;BME280;46248;58.364;25.582;2024-01-15T13:08:01;97313.22;;;-6.97;100.00
59767;BME280;46248;58.364;25.582;2024-01-15T13:11:24;97324.03;;;-6.91;100.00
59767;BME280;46248;58.364;25.582;2024-01-15T13:14:46;97314.88;;;-6.96;100.00
59767;BME280;46248;58.364;25.582;2024-01-15T13:18:09;97318.47;;;-7.02;100.00
59767;BME280;46248;58.364;25.582;2024-01-15T13:21:31;97317.72;;;-7.05;100.00
59767;BME280;46248;58.364;25.582;2024-01-15T13:24:54;97328.78;;;-7.06;100.00
59767;BME280;46248;58.364;25.582;2024-01-15T13:28:16;97318.59;;;-7.06;100.00
59767;BME280;46248;58.364;25.582;2024-01-15T13:31:38;97320.50;;;-7.13;100.00
59767;BME280;46248;58.364;25.582;2024-01-15T13:35:00;97318.00;;;-7.15;100.00
59767;BME280;46248;58.364;25.582;2024-01-15T13:38:23;97321.56;;;-7.20;100.00
59767;BME280;46248;58.364;25.582;2024-01-15T13:41:46;97325.00;;;-7.21;100.00
59767;BME280;46248;58.364;25.582;2024-01-15T13:45:09;97312.53;;;-7.29;100.00
59767;BME280;46248;58.364;25.582;2024-01-15T13:48:33;97314.22;;;-7.29;100.00
59767;BME280;46248;58.364;25.582;2024-01-15T13:51:56;97311.06;;;-7.36;100.00
59767;BME280;46248;58.364;25.582;2024-01-15T13:55:17;97310.41;;;-7.43;100.00
59767;BME280;46248;58.364;25.582;2024-01-15T13:58:42;97311.16;;;-7.39;100.00
59767;BME280;46248;58.364;25.582;2024-01-15T14:02:04;97307.88;;;-7.43;100.00
59767;BME280;46248;58.364;25.582;2024-01-15T14:05:26;97313.88;;;-7.45;100.00
59767;BME280;46248;58.364;25.582;2024-01-15T14:08:48;97302.16;;;-7.49;100.00
59767;BME280;46248;58.364;25.582;2024-01-15T14:12:10;97311.41;;;-7.47;100.00
59767;BME280;46248;58.364;25.582;2024-01-15T14:15:34;97310.63;;;-7.50;100.00
59767;BME280;46248;58.364;25.582;2024-01-15T14:18:59;97309.88;;;-7.52;100.00
59767;BME280;46248;58.364;25.582;2024-01-15T14:22:23;97291.72;;;-7.68;100.00
59767;BME280;46248;58.364;25.582;2024-01-15T14:25:45;97304.16;;;-7.59;100.00
59767;BME280;46248;58.364;25.582;2024-01-15T14:29:07;97300.72;;;-7.58;100.00
59767;BME280;46248;58.364;25.582;2024-01-15T14:32:30;97301.56;;;-7.57;100.00
59767;BME280;46248;58.364;25.582;2024-01-15T14:35:52;97278.22;;;-7.70;100.00
59767;BME280;46248;58.364;25.582;2024-01-15T14:39:13;97289.09;;;-7.65;100.00
59767;BME280;46248;58.364;25.582;2024-01-15T14:42:36;97297.44;;;-7.62;100.00
59767;BME280;46248;58.364;25.582;2024-01-15T14:45:58;97292.38;;;-7.62;100.00
59767;BME280;46248;58.364;25.582;2024-01-15T14:49:22;97290.75;;;-7.64;100.00
59767;BME280;46248;58.364;25.582;2024-01-15T14:52:44;97306.97;;;-7.68;100.00
59767;BME280;46248;58.364;25.582;2024-01-15T14:56:06;97295.13;;;-7.69;100.00
59767;BME280;46248;58.364;25.582;2024-01-15T14:59:28;97306.09;;;-7.67;100.00
59767;BME280;46248;58.364;25.582;2024-01-15T15:02:50;97304.38;;;-7.67;100.00
59767;BME280;46248;58.364;25.582;2024-01-15T15:06:13;97306.19;;;-7.70;100.00
59767;BME280;46248;58.364;25.582;2024-01-15T15:09:38;97303.66;;;-7.72;100.00
59767;BME280;46248;58.364;25.582;2024-01-15T15:13:00;97266.19;;;-7.92;100.00
59767;BME280;46248;58.364;25.582;2024-01-15T15:16:21;97301.97;;;-7.71;100.00
59767;BME280;46248;58.364;25.582;2024-01-15T15:19:43;97301.19;;;-7.73;100.00
59767;BME280;46248;58.364;25.582;2024-01-15T15:23:06;97279.63;;;-7.90;100.00
59767;BME280;46248;58.364;25.582;2024-01-15T15:26:29;97296.28;;;-7.79;100.00
59767;BME280;46248;58.364;25.582;2024-01-15T15:29:51;97297.91;;;-7.77;100.00
59767;BME280;46248;58.364;25.582;2024-01-15T15:33:13;97283.72;;;-7.84;100.00
59767;BME280;46248;58.364;25.582;2024-01-15T15:36:36;97291.22;;;-7.79;100.00
59767;BME280;46248;58.364;25.582;2024-01-15T15:39:59;97287.00;;;-7.80;100.00
59767;BME280;46248;58.364;25.582;2024-01-15T15:43:21;97295.47;;;-7.80;100.00
59767;BME280;46248;58.364;25.582;2024-01-15T15:46:43;97298.13;;;-7.85;100.00
59767;BME280;46248;58.364;25.582;2024-01-15T15:50:06;97291.31;;;-7.84;100.00
59767;BME280;46248;58.364;25.582;2024-01-15T15:53:28;97286.31;;;-7.86;100.00
59767;BME280;46248;58.364;25.582;2024-01-15T15:56:52;97286.31;;;-7.86;100.00
59767;BME280;46248;58.364;25.582;2024-01-15T16:00:16;97284.63;;;-7.87;100.00
59767;BME280;46248;58.364;25.582;2024-01-15T16:03:38;97280.44;;;-7.88;100.00
59767;BME280;46248;58.364;25.582;2024-01-15T16:07:00;97279.53;;;-7.85;100.00
59767;BME280;46248;58.364;25.582;2024-01-15T16:10:24;97288.03;;;-7.86;100.00
59767;BME280;46248;58.364;25.582;2024-01-15T16:13:47;97283.81;;;-7.87;100.00
59767;BME280;46248;58.364;25.582;2024-01-15T16:17:08;97281.44;;;-7.93;100.00
59767;BME280;46248;58.364;25.582;2024-01-15T16:20:50;97279.69;;;-7.91;100.00
59767;BME280;46248;58.364;25.582;2024-01-15T16:24:32;97280.59;;;-7.92;100.00
59767;BME280;46248;58.364;25.582;2024-01-15T16:28:10;97273.78;;;-7.92;100.00
59767;BME280;46248;58.364;25.582;2024-01-15T16:31:35;97276.34;;;-7.92;100.00
59767;BME280;46248;58.364;25.582;2024-01-15T16:34:57;97273.06;;;-7.95;100.00
59767;BME280;46248;58.364;25.582;2024-01-15T16:38:19;97268.00;;;-7.97;100.00
59767;BME280;46248;58.364;25.582;2024-01-15T16:41:41;97267.09;;;-7.94;100.00
59767;BME280;46248;58.364;25.582;2024-01-15T16:45:04;97264.69;;;-7.99;100.00
59767;BME280;46248;58.364;25.582;2024-01-15T16:48:28;97273.16;;;-7.98;100.00
59767;BME280;46248;58.364;25.582;2024-01-15T16:51:51;97267.22;;;-7.99;100.00
59767;BME280;46248;58.364;25.582;2024-01-15T16:55:12;97261.50;;;-8.06;100.00
59767;BME280;46248;58.364;25.582;2024-01-15T16:58:34;97259.84;;;-8.07;100.00
59767;BME280;46248;58.364;25.582;2024-01-15T17:01:56;97257.31;;;-8.08;100.00
59767;BME280;46248;58.364;25.582;2024-01-15T17:05:22;97253.97;;;-8.09;100.00
59767;BME280;46248;58.364;25.582;2024-01-15T17:08:44;97253.13;;;-8.09;100.00
59767;BME280;46248;58.364;25.582;2024-01-15T17:12:07;97252.31;;;-8.10;100.00
59767;BME280;46248;58.364;25.582;2024-01-15T17:15:28;97243.25;;;-8.18;100.00
59767;BME280;46248;58.364;25.582;2024-01-15T17:18:51;97249.88;;;-8.14;100.00
59767;BME280;46248;58.364;25.582;2024-01-15T17:22:14;97254.88;;;-8.11;100.00
59767;BME280;46248;58.364;25.582;2024-01-15T17:25:36;97254.09;;;-8.13;100.00
59767;BME280;46248;58.364;25.582;2024-01-15T17:28:58;97243.16;;;-8.15;100.00